createdAt,value
2017-05-06T00:02:25.874Z,0
2017-05-06T00:07:21.671Z,0
2017-05-06T00:12:17.271Z,0
2017-05-06T00:17:12.873Z,0
2017-05-06T00:22:08.818Z,0
2017-05-06T00:27:04.813Z,0
2017-05-06T00:32:00.315Z,0
2017-05-06T00:36:55.910Z,0
2017-05-06T00:41:51.504Z,0
2017-05-06T00:46:47.903Z,0
2017-05-06T00:51:43.313Z,0
2017-05-06T00:56:39.041Z,0
2017-05-06T01:01:34.783Z,0
2017-05-06T01:06:30.613Z,0
2017-05-06T01:11:26.340Z,0
2017-05-06T01:16:22.109Z,0
2017-05-06T01:21:17.929Z,0
2017-05-06T01:26:13.636Z,0
2017-05-06T01:31:09.276Z,0
2017-05-06T01:36:05.363Z,0
2017-05-06T01:41:00.926Z,0
2017-05-06T01:45:56.862Z,0
2017-05-06T01:50:52.054Z,0
2017-05-06T01:55:47.865Z,0
2017-05-06T02:00:44.079Z,0
2017-05-06T02:05:40.638Z,0
2017-05-06T02:10:36.174Z,0
2017-05-06T02:15:31.796Z,0
2017-05-06T02:20:27.669Z,0
2017-05-06T02:25:23.566Z,0
2017-05-06T02:30:18.858Z,0
2017-05-06T02:35:14.609Z,0
2017-05-06T02:40:10.265Z,0
2017-05-06T02:45:06.963Z,0
2017-05-06T02:50:02.551Z,0
2017-05-06T02:54:58.171Z,0
2017-05-06T02:59:53.910Z,0
2017-05-06T03:04:50.013Z,0
2017-05-06T03:09:45.546Z,0
2017-05-06T03:14:41.202Z,4
2017-05-06T03:19:36.905Z,4
2017-05-06T03:24:32.767Z,8
2017-05-06T03:29:28.503Z,16
2017-05-06T03:34:24.040Z,32
2017-05-06T03:39:19.696Z,52
2017-05-06T03:44:15.341Z,84
2017-05-06T03:49:10.827Z,128
2017-05-06T03:54:06.648Z,152
2017-05-06T03:59:02.405Z,200
2017-05-06T04:03:58.247Z,248
2017-05-06T04:08:53.880Z,320
2017-05-06T04:13:49.596Z,424
2017-05-06T04:18:45.256Z,512
2017-05-06T04:23:41.279Z,592
2017-05-06T04:28:36.870Z,716
2017-05-06T04:33:32.569Z,888
2017-05-06T04:38:28.450Z,1068
2017-05-06T04:43:24.051Z,1204
2017-05-06T04:48:19.888Z,1460
2017-05-06T04:53:15.681Z,1668
2017-05-06T04:58:12.080Z,2028
2017-05-06T05:03:07.850Z,2416
2017-05-06T05:08:03.458Z,2500
2017-05-06T05:12:59.372Z,2992
2017-05-06T05:17:55.073Z,2656
2017-05-06T05:22:51.084Z,3256
2017-05-06T05:27:46.887Z,3028
2017-05-06T05:32:43.235Z,3388
2017-05-06T05:37:39.009Z,3548
2017-05-06T05:42:35.188Z,4076
2017-05-06T05:47:31.586Z,3776
2017-05-06T05:52:27.308Z,4032
2017-05-06T05:57:22.906Z,4760
2017-05-06T06:02:18.843Z,6072
2017-05-06T06:07:14.786Z,6296
2017-05-06T06:12:11.283Z,6972
2017-05-06T06:17:07.368Z,7772
2017-05-06T06:22:04.580Z,7356
2017-05-06T06:27:00.179Z,7104
2017-05-06T06:31:56.306Z,7072
2017-05-06T06:36:52.186Z,6008
2017-05-06T06:41:47.725Z,6656
2017-05-06T06:46:43.759Z,7612
2017-05-06T06:51:40.598Z,9644
2017-05-06T06:56:36.458Z,10908
2017-05-06T07:01:32.428Z,10032
2017-05-06T07:06:28.238Z,9672
2017-05-06T07:11:24.539Z,10704
2017-05-06T07:16:20.166Z,7828
2017-05-06T07:21:17.182Z,10332
2017-05-06T07:26:12.507Z,11092
2017-05-06T07:31:08.641Z,10920
2017-05-06T07:36:04.725Z,9668
2017-05-06T07:41:00.746Z,24160
2017-05-06T07:45:56.783Z,13564
2017-05-06T07:50:53.419Z,25696
2017-05-06T07:55:50.045Z,53696
2017-05-06T08:00:46.905Z,12020
2017-05-06T08:05:42.350Z,19456
2017-05-06T08:10:38.526Z,17184
2017-05-06T08:15:34.032Z,44448
2017-05-06T08:20:31.844Z,51328
2017-05-06T08:25:29.256Z,11816
2017-05-06T08:30:24.603Z,58848
2017-05-06T08:35:22.691Z,63904
2017-05-06T08:40:21.483Z,55360
2017-05-06T08:45:18.112Z,49888
2017-05-06T08:50:14.065Z,13976
2017-05-06T08:55:07.903Z,12700
2017-05-06T09:00:01.905Z,16164
2017-05-06T09:05:01.407Z,11520
2017-05-06T09:09:55.909Z,15424
2017-05-06T09:14:52.848Z,22624
2017-05-06T09:19:49.723Z,59776
2017-05-06T09:24:47.200Z,48640
2017-05-06T09:29:44.764Z,59040
2017-05-06T09:34:42.418Z,62944
2017-05-06T09:39:39.139Z,69824
2017-05-06T09:44:39.457Z,66176
2017-05-06T09:49:34.557Z,65152
2017-05-06T09:54:31.032Z,76384
2017-05-06T09:59:27.518Z,71072
2017-05-06T10:04:23.473Z,93344
2017-05-06T10:09:21.670Z,85696
2017-05-06T10:14:17.361Z,75680
2017-05-06T10:19:17.910Z,80256
2017-05-06T10:24:12.185Z,76512
2017-05-06T10:29:08.481Z,32352
2017-05-06T10:34:04.017Z,17324
2017-05-06T10:39:00.402Z,26272
2017-05-06T10:43:55.551Z,88448
2017-05-06T10:48:53.482Z,77024
2017-05-06T10:53:52.996Z,67488
2017-05-06T10:58:49.602Z,86880
2017-05-06T11:03:46.735Z,74752
2017-05-06T11:08:43.316Z,72288
2017-05-06T11:13:37.199Z,82656
2017-05-06T11:23:35.627Z,92256
2017-05-06T11:28:32.253Z,13232
2017-05-06T11:33:26.531Z,76640
2017-05-06T11:38:22.839Z,76864
2017-05-06T11:43:19.354Z,36704
2017-05-06T11:48:11.424Z,87520
2017-05-06T11:53:10.844Z,11192
2017-05-06T11:58:03.081Z,24224
2017-05-06T12:07:58.333Z,64448
2017-05-06T12:12:57.512Z,64192
2017-05-06T12:17:55.256Z,37696
2017-05-06T12:22:48.999Z,70144
2017-05-06T12:27:47.419Z,71904
2017-05-06T12:32:43.730Z,16092
2017-05-06T12:37:36.558Z,89504
2017-05-06T12:42:34.104Z,31232
2017-05-06T12:47:28.692Z,23328
2017-05-06T12:52:25.496Z,21248
2017-05-06T12:57:22.923Z,15104
2017-05-06T13:02:19.528Z,11152
2017-05-06T13:07:15.010Z,53696
2017-05-06T13:12:12.090Z,11028
2017-05-06T13:17:07.543Z,17696
2017-05-06T13:22:05.599Z,58208
2017-05-06T13:27:01.922Z,68480
2017-05-06T13:32:01.841Z,18912
2017-05-06T13:36:55.273Z,9904
2017-05-06T13:41:50.023Z,20832
2017-05-06T13:46:47.281Z,16672
2017-05-06T13:51:42.327Z,15552
2017-05-06T13:56:38.818Z,39456
2017-05-06T14:01:34.508Z,14844
2017-05-06T14:06:29.900Z,9288
2017-05-06T14:11:26.009Z,20512
2017-05-06T14:16:21.894Z,8172
2017-05-06T14:21:18.068Z,6416
2017-05-06T14:26:13.990Z,5728
2017-05-06T14:31:09.654Z,5772
2017-05-06T14:36:04.996Z,4776
2017-05-06T14:41:00.753Z,5668
2017-05-06T14:45:56.403Z,7868
2017-05-06T14:50:52.156Z,4932
2017-05-06T14:55:49.269Z,6392
2017-05-06T15:00:45.929Z,6844
2017-05-06T15:05:41.298Z,4288
2017-05-06T15:10:36.623Z,5772
2017-05-06T15:15:32.762Z,6760
2017-05-06T15:20:28.836Z,6236
2017-05-06T15:25:24.551Z,6204
2017-05-06T15:30:21.905Z,4388
2017-05-06T15:35:17.525Z,4280
2017-05-06T15:40:13.373Z,5248
2017-05-06T15:45:09.156Z,4792
2017-05-06T15:50:05.399Z,4736
2017-05-06T15:55:01.380Z,4768
2017-05-06T15:59:57.749Z,4852
2017-05-06T16:04:53.539Z,3720
2017-05-06T16:09:50.884Z,3776
2017-05-06T16:14:47.179Z,5796
2017-05-06T16:19:42.914Z,6984
2017-05-06T16:24:39.239Z,5392
2017-05-06T16:29:35.153Z,4752
2017-05-06T16:34:30.965Z,2868
2017-05-06T16:39:26.595Z,2732
2017-05-06T16:44:22.246Z,2352
2017-05-06T16:49:25.479Z,2828
2017-05-06T16:54:19.325Z,2636
2017-05-06T16:59:16.035Z,2332
2017-05-06T17:04:11.452Z,2364
2017-05-06T17:09:07.348Z,2308
2017-05-06T17:14:04.365Z,2260
2017-05-06T17:18:59.675Z,2292
2017-05-06T17:23:55.640Z,2224
2017-05-06T17:28:52.605Z,2036
2017-05-06T17:33:48.265Z,1844
2017-05-06T17:38:43.784Z,1836
2017-05-06T17:43:39.340Z,1720
2017-05-06T17:48:35.732Z,1688
2017-05-06T17:53:31.520Z,1512
2017-05-06T17:58:27.520Z,1396
2017-05-06T18:03:23.173Z,1188
2017-05-06T18:08:19.085Z,1060
2017-05-06T18:13:14.995Z,1028
2017-05-06T18:18:10.669Z,924
2017-05-06T18:23:06.853Z,868
2017-05-06T18:28:02.697Z,824
2017-05-06T18:32:59.548Z,680
2017-05-06T18:37:54.743Z,552
2017-05-06T18:42:50.559Z,444
2017-05-06T18:47:47.579Z,344
2017-05-06T18:52:42.702Z,248
2017-05-06T18:57:38.263Z,168
2017-05-06T19:02:34.595Z,116
2017-05-06T19:07:32.539Z,76
2017-05-06T19:12:28.297Z,44
2017-05-06T19:17:23.991Z,24
2017-05-06T19:22:20.242Z,16
2017-05-06T19:27:15.741Z,8
2017-05-06T19:32:12.374Z,4
2017-05-06T19:37:08.105Z,4
2017-05-06T19:42:03.755Z,0
2017-05-06T19:46:59.390Z,0
2017-05-06T19:51:55.987Z,0
2017-05-06T19:56:51.875Z,0
2017-05-06T20:01:48.870Z,0
2017-05-06T20:06:44.325Z,0
2017-05-06T20:11:40.253Z,0
2017-05-06T20:16:35.715Z,0
2017-05-06T20:21:32.994Z,0
2017-05-06T20:26:28.696Z,0
2017-05-06T20:31:24.918Z,0
2017-05-06T20:36:20.309Z,0
2017-05-06T20:41:16.620Z,0
2017-05-06T20:46:13.478Z,0
2017-05-06T20:51:09.651Z,0
2017-05-06T20:56:06.240Z,0
2017-05-06T21:01:05.192Z,0
2017-05-06T21:06:00.185Z,0
2017-05-06T21:10:56.031Z,0
2017-05-06T21:15:52.164Z,0
2017-05-06T21:20:47.585Z,0
2017-05-06T21:25:44.200Z,0
2017-05-06T21:30:40.104Z,0
2017-05-06T21:35:42.749Z,0
2017-05-06T21:40:37.468Z,0
2017-05-06T21:45:34.067Z,0
2017-05-06T21:50:29.777Z,0
2017-05-06T21:55:26.372Z,0
2017-05-06T22:00:21.826Z,0
2017-05-06T22:05:18.458Z,0
2017-05-06T22:10:13.911Z,0
2017-05-06T22:15:10.372Z,0
2017-05-06T22:20:05.702Z,0
2017-05-06T22:25:01.718Z,0
2017-05-06T22:29:57.530Z,0
2017-05-06T22:34:55.665Z,0
2017-05-06T22:39:50.706Z,0
2017-05-06T22:44:47.365Z,0
2017-05-06T22:49:45.975Z,0
2017-05-06T22:54:41.727Z,0
2017-05-06T22:59:38.457Z,0
2017-05-06T23:04:33.772Z,0
2017-05-06T23:09:29.824Z,0
2017-05-06T23:14:26.649Z,0
2017-05-06T23:19:22.331Z,0
2017-05-06T23:24:18.519Z,0
2017-05-06T23:29:15.244Z,0
2017-05-06T23:34:11.298Z,0
2017-05-06T23:39:07.065Z,0
2017-05-06T23:44:03.405Z,0
2017-05-06T23:48:59.368Z,0
2017-05-06T23:53:55.032Z,0
2017-05-06T23:58:51.006Z,0
